createdAt,value
2023-05-13T00:01:04.758Z,18.17
2023-05-13T00:03:32.597Z,18.19
2023-05-13T00:06:00.575Z,18.01
2023-05-13T00:08:28.082Z,18.21
2023-05-13T00:10:55.480Z,18.66
2023-05-13T00:13:22.960Z,18.28
2023-05-13T00:15:52.079Z,17.83
2023-05-13T00:18:19.574Z,18.33
2023-05-13T00:20:46.993Z,17.96
2023-05-13T00:23:14.545Z,18.04
2023-05-13T00:25:44.094Z,17.83
2023-05-13T00:28:13.921Z,17.82
2023-05-13T00:30:42.140Z,17.57
2023-05-13T00:33:10.941Z,17.55
2023-05-13T00:35:38.509Z,18.03
2023-05-13T00:38:05.935Z,17.81
2023-05-13T00:40:38.048Z,17.88
2023-05-13T00:43:05.629Z,17.60
2023-05-13T00:45:33.422Z,17.44
2023-05-13T00:48:01.641Z,17.53
2023-05-13T00:50:30.407Z,17.78
2023-05-13T00:52:58.473Z,17.64
2023-05-13T00:55:26.683Z,17.46
2023-05-13T00:57:54.126Z,17.22
2023-05-13T01:00:21.956Z,17.35
2023-05-13T01:02:58.464Z,17.45
2023-05-13T01:05:32.356Z,17.60
2023-05-13T01:08:08.669Z,17.33
2023-05-13T01:10:42.868Z,17.76
2023-05-13T01:13:14.210Z,17.04
2023-05-13T01:15:54.711Z,16.89
2023-05-13T01:18:29.123Z,17.44
2023-05-13T01:20:57.556Z,17.52
2023-05-13T01:23:26.359Z,17.62
2023-05-13T01:25:53.738Z,17.73
2023-05-13T01:28:21.415Z,17.09
2023-05-13T01:30:49.410Z,17.45
2023-05-13T01:33:18.571Z,17.32
2023-05-13T01:35:47.047Z,17.87
2023-05-13T01:38:15.394Z,16.96
2023-05-13T01:40:44.798Z,17.05
2023-05-13T01:43:12.218Z,17.69
2023-05-13T01:45:43.170Z,17.38
2023-05-13T01:48:10.599Z,17.24
2023-05-13T01:50:38.102Z,17.60
2023-05-13T01:53:05.567Z,16.80
2023-05-13T01:55:32.950Z,17.27
2023-05-13T01:58:01.670Z,16.87
2023-05-13T02:00:29.051Z,16.69
2023-05-13T02:02:56.507Z,17.35
2023-05-13T02:05:24.169Z,16.88
2023-05-13T02:07:51.590Z,17.10
2023-05-13T02:10:19.149Z,16.74
2023-05-13T02:12:46.597Z,17.49
2023-05-13T02:15:15.394Z,17.40
2023-05-13T02:17:43.232Z,17.32
2023-05-13T02:20:11.740Z,17.11
2023-05-13T02:22:39.140Z,17.14
2023-05-13T02:25:07.312Z,17.05
2023-05-13T02:27:34.746Z,16.66
2023-05-13T02:30:02.147Z,16.65
2023-05-13T02:32:30.938Z,16.97
2023-05-13T02:34:58.530Z,16.57
2023-05-13T02:37:25.987Z,16.90
2023-05-13T02:39:53.474Z,16.91
2023-05-13T02:42:21.043Z,16.81
2023-05-13T02:44:48.507Z,17.46
2023-05-13T02:47:16.111Z,16.92
2023-05-13T02:49:44.899Z,16.94
2023-05-13T02:52:12.297Z,16.73
2023-05-13T02:54:39.684Z,16.41
2023-05-13T02:57:07.166Z,17.06
2023-05-13T02:59:34.641Z,17.11
2023-05-13T03:02:02.185Z,17.35
2023-05-13T03:04:29.569Z,16.96
2023-05-13T03:06:58.296Z,17.36
2023-05-13T03:09:25.705Z,16.76
2023-05-13T03:11:53.214Z,17.25
2023-05-13T03:14:20.815Z,16.40
2023-05-13T03:16:48.191Z,16.75
2023-05-13T03:19:15.710Z,16.64
2023-05-13T03:21:43.189Z,16.55
2023-05-13T03:24:11.934Z,16.42
2023-05-13T03:26:39.324Z,16.55
2023-05-13T03:29:06.748Z,16.70
2023-05-13T03:31:34.219Z,16.74
2023-05-13T03:34:01.606Z,16.50
2023-05-13T03:36:29.010Z,16.82
2023-05-13T03:38:56.399Z,16.72
2023-05-13T03:41:25.140Z,16.65
2023-05-13T03:43:52.535Z,17.07
2023-05-13T03:46:19.988Z,16.95
2023-05-13T03:48:47.721Z,17.08
2023-05-13T03:51:15.087Z,17.42
2023-05-13T03:53:42.507Z,17.81
2023-05-13T03:56:10.398Z,17.36
2023-05-13T03:58:39.400Z,16.70
2023-05-13T04:01:07.856Z,17.79
2023-05-13T04:03:35.732Z,18.43
2023-05-13T04:06:03.110Z,18.57
2023-05-13T04:08:30.789Z,17.78
2023-05-13T04:10:58.152Z,18.48
2023-05-13T04:13:25.520Z,19.08
2023-05-13T04:15:55.299Z,19.63
2023-05-13T04:18:22.856Z,21.09
2023-05-13T04:20:50.257Z,21.70
2023-05-13T04:23:17.641Z,21.21
2023-05-13T04:25:51.407Z,20.69
2023-05-13T04:28:18.845Z,19.61
2023-05-13T04:30:46.242Z,19.14
2023-05-13T04:33:15.010Z,19.67
2023-05-13T04:35:42.449Z,19.70
2023-05-13T04:38:10.288Z,18.19
2023-05-13T04:40:37.710Z,19.21
2023-05-13T04:43:05.146Z,19.63
2023-05-13T04:45:32.630Z,20.17
2023-05-13T04:48:00.085Z,19.56
2023-05-13T04:50:28.837Z,19.88
2023-05-13T04:52:56.978Z,18.48
2023-05-13T04:55:26.753Z,19.28
2023-05-13T04:57:55.045Z,19.30
2023-05-13T05:00:22.643Z,19.39
2023-05-13T05:02:50.438Z,18.83
2023-05-13T05:05:18.504Z,19.08
2023-05-13T05:07:47.459Z,18.48
2023-05-13T05:10:15.485Z,18.47
2023-05-13T05:12:43.185Z,18.19
2023-05-13T05:15:15.667Z,18.38
2023-05-13T05:17:43.402Z,18.24
2023-05-13T05:20:12.262Z,18.86
2023-05-13T05:22:41.740Z,19.93
2023-05-13T05:25:11.637Z,18.82
2023-05-13T05:27:39.159Z,20.90
2023-05-13T05:30:07.866Z,22.54
2023-05-13T05:32:35.677Z,23.79
2023-05-13T05:35:03.929Z,22.31
2023-05-13T05:37:31.841Z,25.03
2023-05-13T05:39:59.277Z,22.56
2023-05-13T05:42:27.990Z,21.02
2023-05-13T05:44:55.596Z,20.89
2023-05-13T05:47:23.028Z,21.94
2023-05-13T05:49:50.633Z,22.35
2023-05-13T05:52:17.996Z,22.64
2023-05-13T05:54:45.633Z,22.58
2023-05-13T05:57:13.098Z,19.88
2023-05-13T05:59:41.824Z,23.05
2023-05-13T06:02:09.302Z,24.25
2023-05-13T06:04:36.805Z,23.07
2023-05-13T06:07:04.292Z,22.75
2023-05-13T06:09:32.036Z,22.30
2023-05-13T06:11:59.425Z,22.90
2023-05-13T06:14:26.996Z,22.71
2023-05-13T06:16:56.017Z,22.03
2023-05-13T06:19:23.619Z,21.07
2023-05-13T06:21:50.988Z,20.21
2023-05-13T06:24:18.416Z,20.07
2023-05-13T06:26:46.141Z,21.29
2023-05-13T06:29:13.630Z,21.72
2023-05-13T06:31:41.113Z,20.54
2023-05-13T06:34:16.325Z,21.41
2023-05-13T06:36:44.069Z,20.40
2023-05-13T06:39:12.576Z,20.49
2023-05-13T06:41:40.290Z,19.77
2023-05-13T06:44:08.299Z,19.82
2023-05-13T06:46:36.170Z,19.59
2023-05-13T06:49:03.683Z,19.82
2023-05-13T06:51:33.822Z,20.14
2023-05-13T06:54:01.579Z,20.17
2023-05-13T06:56:30.432Z,19.73
2023-05-13T06:58:57.836Z,20.16
2023-05-13T07:01:25.299Z,19.16
2023-05-13T07:03:52.891Z,19.29
2023-05-13T07:06:20.343Z,19.92
2023-05-13T07:08:49.120Z,19.77
2023-05-13T07:11:16.765Z,19.30
2023-05-13T07:13:44.530Z,18.78
2023-05-13T07:16:14.527Z,18.70
2023-05-13T07:18:42.200Z,18.73
2023-05-13T07:21:09.795Z,18.94
2023-05-13T07:23:37.248Z,19.09
2023-05-13T07:26:06.139Z,19.34
2023-05-13T07:28:33.584Z,19.67
2023-05-13T07:31:01.131Z,19.97
2023-05-13T07:33:29.078Z,19.51
2023-05-13T07:35:56.662Z,19.37
2023-05-13T07:38:24.124Z,19.52
2023-05-13T07:40:51.521Z,19.26
2023-05-13T07:43:23.828Z,19.85
2023-05-13T07:45:51.860Z,20.22
2023-05-13T07:48:19.651Z,19.73
2023-05-13T07:50:47.337Z,19.77
2023-05-13T07:53:15.258Z,20.24
2023-05-13T07:55:43.123Z,20.04
2023-05-13T07:58:10.516Z,19.95
2023-05-13T08:00:39.433Z,19.72
2023-05-13T08:03:06.989Z,20.19
2023-05-13T08:05:34.521Z,20.67
2023-05-13T08:08:02.825Z,19.99
2023-05-13T08:10:30.497Z,19.65
2023-05-13T08:12:58.354Z,20.44
2023-05-13T08:15:27.095Z,20.19
2023-05-13T08:17:55.854Z,19.91
2023-05-13T08:20:29.437Z,20.45
2023-05-13T08:22:58.124Z,20.19
2023-05-13T08:25:26.130Z,19.78
2023-05-13T08:27:53.557Z,20.24
2023-05-13T08:30:21.022Z,20.35
2023-05-13T08:32:48.544Z,21.05
2023-05-13T08:35:17.459Z,21.07
2023-05-13T08:37:44.938Z,21.29
2023-05-13T08:40:12.745Z,20.40
2023-05-13T08:42:40.895Z,20.97
2023-05-13T08:45:09.874Z,20.26
2023-05-13T08:47:46.082Z,20.86
2023-05-13T08:50:14.345Z,21.15
2023-05-13T08:52:44.427Z,21.14
2023-05-13T08:55:12.058Z,21.84
2023-05-13T08:57:39.734Z,20.90
2023-05-13T09:00:08.566Z,20.76
2023-05-13T09:02:36.186Z,20.53
2023-05-13T09:05:07.336Z,20.67
2023-05-13T09:07:35.077Z,20.44
2023-05-13T09:10:04.084Z,20.31
2023-05-13T09:12:47.888Z,21.10
2023-05-13T09:15:17.317Z,21.33
2023-05-13T09:17:45.884Z,21.67
2023-05-13T09:20:15.074Z,21.48
2023-05-13T09:22:45.894Z,21.77
2023-05-13T09:25:16.338Z,20.99
2023-05-13T09:27:47.120Z,20.74
2023-05-13T09:30:15.312Z,21.67
2023-05-13T09:32:43.919Z,21.66
2023-05-13T09:35:16.649Z,21.96
2023-05-13T09:37:48.501Z,21.37
2023-05-13T09:40:18.409Z,21.60
2023-05-13T09:42:47.263Z,22.19
2023-05-13T09:45:16.388Z,22.35
2023-05-13T09:47:44.575Z,21.25
2023-05-13T09:50:13.297Z,21.11
2023-05-13T09:52:40.784Z,21.20
2023-05-13T09:55:10.782Z,21.33
2023-05-13T09:57:40.822Z,21.95
2023-05-13T10:00:15.263Z,21.87
2023-05-13T10:02:52.926Z,21.52
2023-05-13T10:05:20.951Z,22.11
2023-05-13T10:07:48.514Z,21.97
2023-05-13T10:10:16.064Z,22.44
2023-05-13T10:12:44.974Z,22.43
2023-05-13T10:15:12.914Z,22.97
2023-05-13T10:17:41.665Z,22.24
2023-05-13T10:20:09.620Z,22.28
2023-05-13T10:22:37.904Z,22.84
2023-05-13T10:25:07.289Z,22.95
2023-05-13T10:27:35.181Z,21.97
2023-05-13T10:30:09.585Z,21.65
2023-05-13T10:32:39.147Z,22.46
2023-05-13T10:35:11.916Z,21.65
2023-05-13T10:38:00.320Z,22.81
2023-05-13T10:41:09.424Z,22.36
2023-05-13T10:43:37.582Z,22.49
2023-05-13T10:46:08.103Z,22.88
2023-05-13T10:48:43.521Z,22.65
2023-05-13T10:51:15.255Z,22.76
2023-05-13T10:53:47.211Z,22.70
2023-05-13T10:56:15.002Z,22.89
2023-05-13T10:58:42.677Z,21.72
2023-05-13T11:01:16.864Z,22.68
2023-05-13T11:03:53.037Z,22.21
2023-05-13T11:06:22.411Z,21.95
2023-05-13T11:08:53.584Z,22.03
2023-05-13T11:11:30.161Z,21.56
2023-05-13T11:14:08.570Z,21.86
2023-05-13T11:16:38.441Z,21.97
2023-05-13T11:19:19.154Z,22.02
2023-05-13T11:21:50.556Z,22.48
2023-05-13T11:24:19.931Z,23.01
2023-05-13T11:26:51.047Z,22.00
2023-05-13T11:29:29.733Z,22.20
2023-05-13T11:32:00.850Z,22.27
2023-05-13T11:34:29.134Z,22.09
2023-05-13T11:37:06.937Z,22.64
2023-05-13T11:39:34.766Z,22.21
2023-05-13T11:42:07.482Z,22.18
2023-05-13T11:44:35.631Z,22.11
2023-05-13T11:47:07.991Z,22.01
2023-05-13T11:49:38.793Z,22.05
2023-05-13T11:52:08.744Z,22.36
2023-05-13T11:54:47.449Z,22.92
2023-05-13T11:57:22.304Z,22.44
2023-05-13T11:59:54.703Z,22.43
2023-05-13T12:02:25.068Z,22.53
2023-05-13T12:04:53.350Z,23.51
2023-05-13T12:07:22.657Z,22.98
2023-05-13T12:09:50.382Z,23.27
2023-05-13T12:12:18.505Z,23.28
2023-05-13T12:14:47.022Z,22.85
2023-05-13T12:17:15.219Z,23.01
2023-05-13T12:20:06.376Z,22.87
2023-05-13T12:22:34.412Z,22.98
2023-05-13T12:25:06.206Z,22.48
2023-05-13T12:27:33.661Z,22.51
2023-05-13T12:30:01.109Z,22.90
2023-05-13T12:32:28.800Z,22.94
2023-05-13T12:34:57.770Z,22.77
2023-05-13T12:37:26.089Z,22.40
2023-05-13T12:40:10.377Z,23.15
2023-05-13T12:42:37.910Z,23.07
2023-05-13T12:45:07.401Z,22.93
2023-05-13T12:47:49.178Z,22.97
2023-05-13T12:50:18.063Z,23.18
2023-05-13T12:52:45.692Z,23.09
2023-05-13T12:55:14.024Z,23.62
2023-05-13T12:57:42.106Z,23.10
2023-05-13T13:00:12.005Z,23.56
2023-05-13T13:02:42.278Z,23.05
2023-05-13T13:05:10.117Z,23.21
2023-05-13T13:07:40.107Z,23.03
2023-05-13T13:10:08.562Z,22.82
2023-05-13T13:12:37.020Z,23.14
2023-05-13T13:15:05.038Z,23.59
2023-05-13T13:17:32.526Z,23.72
2023-05-13T13:20:00.025Z,24.08
2023-05-13T13:22:27.754Z,23.05
2023-05-13T13:24:56.458Z,23.73
2023-05-13T13:27:23.897Z,24.16
2023-05-13T13:29:51.289Z,23.19
2023-05-13T13:32:18.737Z,22.94
2023-05-13T13:34:46.197Z,22.58
2023-05-13T13:37:13.632Z,22.00
2023-05-13T13:39:41.886Z,22.06
2023-05-13T13:42:10.639Z,22.16
2023-05-13T13:44:39.454Z,22.85
2023-05-13T13:47:06.959Z,21.89
2023-05-13T13:49:34.349Z,22.30
2023-05-13T13:52:01.736Z,22.45
2023-05-13T13:54:29.152Z,23.04
2023-05-13T13:56:56.601Z,22.51
2023-05-13T13:59:25.469Z,22.33
2023-05-13T14:01:53.805Z,22.79
2023-05-13T14:04:23.405Z,22.72
2023-05-13T14:06:51.776Z,22.26
2023-05-13T14:09:19.764Z,22.01
2023-05-13T14:11:47.254Z,22.60
2023-05-13T14:14:14.708Z,22.45
2023-05-13T14:16:44.236Z,22.51
2023-05-13T14:19:12.308Z,22.28
2023-05-13T14:21:39.803Z,21.95
2023-05-13T14:24:08.423Z,21.93
2023-05-13T14:26:36.134Z,21.98
2023-05-13T14:29:03.582Z,22.63
2023-05-13T14:31:31.007Z,22.31
2023-05-13T14:33:59.759Z,22.68
2023-05-13T14:36:27.531Z,22.37
2023-05-13T14:38:55.152Z,22.23
2023-05-13T14:41:23.176Z,22.75
2023-05-13T14:43:50.599Z,22.75
2023-05-13T14:46:18.366Z,22.31
2023-05-13T14:48:45.839Z,22.81
2023-05-13T14:51:14.638Z,22.50
2023-05-13T14:53:42.944Z,22.94
2023-05-13T14:56:10.416Z,22.19
2023-05-13T14:58:37.944Z,22.57
2023-05-13T15:01:05.581Z,22.59
2023-05-13T15:03:33.126Z,22.66
2023-05-13T15:06:00.619Z,22.44
2023-05-13T15:08:29.608Z,22.85
2023-05-13T15:10:57.214Z,23.34
2023-05-13T15:13:27.101Z,23.18
2023-05-13T15:15:55.486Z,22.85
2023-05-13T15:18:22.973Z,22.87
2023-05-13T15:20:50.402Z,23.65
2023-05-13T15:23:17.812Z,24.29
2023-05-13T15:25:46.889Z,24.35
2023-05-13T15:28:14.337Z,24.01
2023-05-13T15:30:42.593Z,24.17
2023-05-13T15:33:10.328Z,23.83
2023-05-13T15:35:37.813Z,23.92
2023-05-13T15:38:05.457Z,23.72
2023-05-13T15:40:32.849Z,23.82
2023-05-13T15:43:01.702Z,23.82
2023-05-13T15:45:29.898Z,24.00
2023-05-13T15:47:57.530Z,23.45
2023-05-13T15:50:25.957Z,24.11
2023-05-13T15:52:54.630Z,23.83
2023-05-13T15:55:22.484Z,24.07
2023-05-13T15:57:50.549Z,24.54
2023-05-13T16:00:20.763Z,24.33
2023-05-13T16:02:48.444Z,23.25
2023-05-13T16:05:19.156Z,22.99
2023-05-13T16:07:46.765Z,22.96
2023-05-13T16:10:15.290Z,22.56
2023-05-13T16:12:42.899Z,22.68
2023-05-13T16:15:11.266Z,22.45
2023-05-13T16:17:40.057Z,22.68
2023-05-13T16:20:10.885Z,22.68
2023-05-13T16:22:39.113Z,22.18
2023-05-13T16:25:08.740Z,22.39
2023-05-13T16:27:37.108Z,22.58
2023-05-13T16:30:06.861Z,22.23
2023-05-13T16:32:35.347Z,22.44
2023-05-13T16:35:04.427Z,22.80
2023-05-13T16:37:34.494Z,22.18
2023-05-13T16:40:01.931Z,21.73
2023-05-13T16:42:29.382Z,22.15
2023-05-13T16:44:56.777Z,21.79
2023-05-13T16:47:24.543Z,21.75
2023-05-13T16:49:52.088Z,21.54
2023-05-13T16:52:20.838Z,21.92
2023-05-13T16:54:48.364Z,22.21
2023-05-13T16:57:16.448Z,22.34
2023-05-13T16:59:44.120Z,22.88
2023-05-13T17:02:11.899Z,22.82
2023-05-13T17:04:39.331Z,22.86
2023-05-13T17:07:07.356Z,22.55
2023-05-13T17:09:36.348Z,22.93
2023-05-13T17:12:03.949Z,22.76
2023-05-13T17:14:31.336Z,22.78
2023-05-13T17:16:58.866Z,22.71
2023-05-13T17:19:26.326Z,22.51
2023-05-13T17:21:53.730Z,23.06
2023-05-13T17:24:22.260Z,22.79
2023-05-13T17:26:51.320Z,22.61
2023-05-13T17:29:18.793Z,22.80
2023-05-13T17:31:46.445Z,22.66
2023-05-13T17:34:13.985Z,23.17
2023-05-13T17:36:41.431Z,22.81
2023-05-13T17:39:08.873Z,22.51
2023-05-13T17:41:36.345Z,22.99
2023-05-13T17:44:05.386Z,22.83
2023-05-13T17:46:32.774Z,22.84
2023-05-13T17:49:00.276Z,22.68
2023-05-13T17:51:27.695Z,22.54
2023-05-13T17:53:55.137Z,22.45
2023-05-13T17:56:22.577Z,22.57
2023-05-13T17:58:50.021Z,22.77
2023-05-13T18:01:19.753Z,22.58
2023-05-13T18:03:47.275Z,21.75
2023-05-13T18:06:14.876Z,22.21
2023-05-13T18:08:42.426Z,22.34
2023-05-13T18:11:10.088Z,22.13
2023-05-13T18:13:37.569Z,22.26
2023-05-13T18:16:06.020Z,21.65
2023-05-13T18:18:34.950Z,22.16
2023-05-13T18:21:02.622Z,22.31
2023-05-13T18:23:30.133Z,22.12
2023-05-13T18:25:57.621Z,21.91
2023-05-13T18:28:25.223Z,22.15
2023-05-13T18:30:52.688Z,22.34
2023-05-13T18:33:21.519Z,21.89
2023-05-13T18:35:50.298Z,21.85
2023-05-13T18:38:17.691Z,21.61
2023-05-13T18:40:45.334Z,21.44
2023-05-13T18:43:13.587Z,21.04
2023-05-13T18:45:41.073Z,20.77
2023-05-13T18:48:08.590Z,20.90
2023-05-13T18:50:36.109Z,20.86
2023-05-13T18:53:04.871Z,21.19
2023-05-13T18:55:32.359Z,20.85
2023-05-13T18:57:59.771Z,21.27
2023-05-13T19:00:27.265Z,21.38
2023-05-13T19:02:54.884Z,21.28
2023-05-13T19:05:22.453Z,21.23
2023-05-13T19:07:49.926Z,21.20
2023-05-13T19:10:18.841Z,20.87
2023-05-13T19:12:46.296Z,20.66
2023-05-13T19:15:13.742Z,20.76
2023-05-13T19:17:42.192Z,20.75
2023-05-13T19:20:10.892Z,20.77
2023-05-13T19:22:38.530Z,20.71
2023-05-13T19:25:06.724Z,20.71
2023-05-13T19:27:35.763Z,20.84
2023-05-13T19:30:03.543Z,20.84
2023-05-13T19:32:31.198Z,20.74
2023-05-13T19:34:58.638Z,20.64
2023-05-13T19:37:26.396Z,20.50
2023-05-13T19:39:53.778Z,20.47
2023-05-13T19:42:21.749Z,20.49
2023-05-13T19:44:50.553Z,20.41
2023-05-13T19:47:18.100Z,20.42
2023-05-13T19:49:45.874Z,20.52
2023-05-13T19:52:13.273Z,20.40
2023-05-13T19:54:40.700Z,20.45
2023-05-13T19:57:08.139Z,20.37
2023-05-13T19:59:35.962Z,20.37
2023-05-13T20:02:05.213Z,20.39
2023-05-13T20:04:32.706Z,20.40
2023-05-13T20:07:00.133Z,20.37
2023-05-13T20:09:27.711Z,20.30
2023-05-13T20:11:55.131Z,20.32
2023-05-13T20:14:24.900Z,20.42
2023-05-13T20:16:52.961Z,20.35
2023-05-13T20:19:21.825Z,20.32
2023-05-13T20:21:49.328Z,20.05
2023-05-13T20:24:16.731Z,20.24
2023-05-13T20:26:44.278Z,20.19
2023-05-13T20:29:12.546Z,20.16
2023-05-13T20:31:42.476Z,20.10
2023-05-13T20:34:10.034Z,20.01
2023-05-13T20:36:39.233Z,19.93
2023-05-13T20:39:07.633Z,19.89
2023-05-13T20:41:35.083Z,19.69
2023-05-13T20:44:02.530Z,19.73
2023-05-13T20:46:30.167Z,19.73
2023-05-13T20:48:57.729Z,19.70
2023-05-13T20:51:25.107Z,19.71
2023-05-13T20:53:53.830Z,19.78
2023-05-13T20:56:22.111Z,19.76
2023-05-13T20:58:49.497Z,19.76
2023-05-13T21:01:16.953Z,19.57
2023-05-13T21:03:44.402Z,19.42
2023-05-13T21:06:12.283Z,19.42
2023-05-13T21:08:40.221Z,19.44
2023-05-13T21:11:08.991Z,19.42
2023-05-13T21:13:36.478Z,19.06
2023-05-13T21:16:04.851Z,19.56
2023-05-13T21:18:33.953Z,19.60
2023-05-13T21:21:02.358Z,19.46
2023-05-13T21:23:29.821Z,19.41
2023-05-13T21:25:57.350Z,19.24
2023-05-13T21:28:26.094Z,19.26
2023-05-13T21:30:53.536Z,19.27
2023-05-13T21:33:20.989Z,19.11
2023-05-13T21:35:48.365Z,18.91
2023-05-13T21:38:15.762Z,19.10
2023-05-13T21:40:43.898Z,19.06
2023-05-13T21:43:11.713Z,18.59
2023-05-13T21:45:40.862Z,18.92
2023-05-13T21:48:08.596Z,19.23
2023-05-13T21:50:36.113Z,19.44
2023-05-13T21:53:04.404Z,19.04
2023-05-13T21:55:34.783Z,19.05
2023-05-13T21:58:02.717Z,18.80
2023-05-13T22:00:30.256Z,18.84
2023-05-13T22:03:00.412Z,18.75
2023-05-13T22:05:28.227Z,18.78
2023-05-13T22:07:55.683Z,18.56
2023-05-13T22:10:23.387Z,18.37
2023-05-13T22:12:51.069Z,18.50
2023-05-13T22:15:18.591Z,18.30
2023-05-13T22:17:46.779Z,18.89
2023-05-13T22:20:17.166Z,19.16
2023-05-13T22:22:44.564Z,19.05
2023-05-13T22:25:12.022Z,18.97
2023-05-13T22:27:39.473Z,18.93
2023-05-13T22:30:08.218Z,18.97
2023-05-13T22:32:36.955Z,19.05
2023-05-13T22:35:04.826Z,18.91
2023-05-13T22:37:33.539Z,18.38
2023-05-13T22:40:03.181Z,18.40
2023-05-13T22:42:30.610Z,18.49
2023-05-13T22:44:57.995Z,18.78
2023-05-13T22:47:25.596Z,18.93
2023-05-13T22:49:53.027Z,18.92
2023-05-13T22:52:20.636Z,18.60
2023-05-13T22:54:49.391Z,18.88
2023-05-13T22:57:17.082Z,18.75
2023-05-13T22:59:44.450Z,18.81
2023-05-13T23:02:12.076Z,18.67
2023-05-13T23:04:39.583Z,18.80
2023-05-13T23:07:07.042Z,18.69
2023-05-13T23:09:34.486Z,18.65
2023-05-13T23:12:03.432Z,18.60
2023-05-13T23:14:30.939Z,18.73
2023-05-13T23:16:58.356Z,18.58
2023-05-13T23:19:26.354Z,18.64
2023-05-13T23:21:53.807Z,18.59
2023-05-13T23:24:21.239Z,18.52
2023-05-13T23:26:49.750Z,18.58
2023-05-13T23:29:18.494Z,18.48
2023-05-13T23:31:45.935Z,18.55
2023-05-13T23:34:13.412Z,18.55
2023-05-13T23:36:40.810Z,18.24
2023-05-13T23:39:08.223Z,18.49
2023-05-13T23:41:35.813Z,18.37
2023-05-13T23:44:03.426Z,18.24
2023-05-13T23:46:32.334Z,18.14
2023-05-13T23:48:59.817Z,18.08
2023-05-13T23:51:27.367Z,17.85
2023-05-13T23:53:55.482Z,17.92
2023-05-13T23:56:23.094Z,17.91
2023-05-13T23:58:50.494Z,18.06
